Ocean Wind — WDG5141 — position and weather

sailwx.info

Track history (hours):
 
Tides and Currents Weather Stations Pressure Air Temp Water Temp Dewpoint Dewpoint Depression Visibility Wind Speed Wind Dir Waves Ship Positions

Ocean Wind

Owner: CROWLEY MARINE SERVIES, INC, SEATTLE, WA. More information available from US FCC via Universal Licensing System and Coast Guard Vessel Documentation Center.

Last reported at 2017-Aug-22 14:11 UTC. Time now 2017-Sep-22 02:46 UTC.
Position N 29°59' W 093°20'.
Warning: this ship's position is 30 days out of date.

Length 45 m; draft 5.7 m.

Type: Tug. MMSI: 338737000.

Date/timePositionNaut miles runAvg speedWind from/ knotsBaromVisibWave heightAir tempDewpointWater temp
2017-Aug-22 14:11N 29°59' W 093°20'1 6.9
2017-Aug-22 14:00N 29°60' W 093°20'4 7.4
2017-Aug-22 13:30N 30°04' W 093°20'4 7.4
2017-Aug-22 13:00N 30°07' W 093°20'4 7.7
2017-Aug-22 12:30N 30°11' W 093°19'3 6.4
2017-Aug-22 11:59N 30°13' W 093°16'0 0.0
2017-Aug-22 11:29N 30°13' W 093°16'0 0.0
2017-Aug-22 10:53N 30°13' W 093°16'0 0.0
2017-Aug-22 10:23N 30°13' W 093°16'0 0.0
2017-Aug-22 09:59N 30°13' W 093°16'0 0.0
2017-Aug-22 09:29N 30°13' W 093°16'0 0.0
2017-Aug-22 08:59N 30°13' W 093°16'0 0.0
2017-Aug-22 08:23N 30°13' W 093°16'0 0.0
2017-Aug-22 07:59N 30°13' W 093°16'0 0.0
2017-Aug-22 07:29N 30°13' W 093°16'0 0.0
2017-Aug-22 06:59N 30°13' W 093°16'0 0.0
2017-Aug-22 06:23N 30°13' W 093°16'0 0.0
2017-Aug-22 05:59N 30°13' W 093°16'0 0.0
2017-Aug-22 05:23N 30°13' W 093°16'0 0.0
2017-Aug-22 04:59N 30°13' W 093°16'0 0.0
2017-Aug-22 04:29N 30°13' W 093°16'0 0.0
2017-Aug-22 03:59N 30°13' W 093°16'0 0.0
2017-Aug-22 03:29N 30°13' W 093°16'0 0.0
2017-Aug-22 02:53N 30°13' W 093°16'0 0.0
2017-Aug-22 02:29N 30°13' W 093°16'0 0.0
2017-Aug-22 01:59N 30°13' W 093°16'0 0.0
2017-Aug-22 01:29N 30°13' W 093°16'0 0.0
2017-Aug-22 00:59N 30°13' W 093°16'0 0.0
2017-Aug-22 00:29N 30°13' W 093°16'0 0.0
2017-Aug-21 23:59N 30°13' W 093°16'0 0.0
2017-Aug-21 23:29N 30°13' W 093°16'0 0.0
2017-Aug-21 22:59N 30°13' W 093°16'0 0.0
2017-Aug-21 22:29N 30°13' W 093°16'0 0.0
2017-Aug-21 21:50N 30°13' W 093°16'0 0.0
2017-Aug-21 21:29N 30°13' W 093°16'0 0.0
2017-Aug-21 20:59N 30°13' W 093°16'0 0.0
2017-Aug-21 20:29N 30°13' W 093°16'0 0.1
2017-Aug-21 19:59N 30°13' W 093°16'0 0.3
2017-Aug-21 19:29N 30°13' W 093°16'0 0.1
2017-Aug-21 18:59N 30°13' W 093°16'0 0.4
2017-Aug-21 18:29N 30°13' W 093°16'0 0.0
2017-Aug-21 17:59N 30°13' W 093°16'0 0.0
2017-Aug-21 17:23N 30°13' W 093°16'0 0.0
2017-Aug-21 16:59N 30°13' W 093°16'0 0.0
2017-Aug-21 16:29N 30°13' W 093°16'0 0.0
2017-Aug-21 15:59N 30°13' W 093°16'0 0.0
2017-Aug-21 15:29N 30°13' W 093°16'0 0.0
2017-Aug-21 14:59N 30°13' W 093°16'0 0.0
2017-Aug-21 14:29N 30°13' W 093°16'0 0.0
2017-Aug-21 13:59N 30°13' W 093°16'0 0.0
2017-Aug-21 13:29N 30°13' W 093°16'0 0.0
2017-Aug-21 12:59N 30°13' W 093°16'0 0.0
2017-Aug-21 12:29N 30°13' W 093°16'0 0.0
2017-Aug-21 11:56N 30°13' W 093°16'0 0.0
2017-Aug-21 11:29N 30°13' W 093°16'0 0.0
2017-Aug-21 10:59N 30°13' W 093°16'0 0.0
2017-Aug-21 10:26N 30°13' W 093°16'0 0.0
2017-Aug-21 09:56N 30°13' W 093°16'0 0.0
2017-Aug-21 09:26N 30°13' W 093°16'0 0.0
2017-Aug-21 08:59N 30°13' W 093°16'0 0.0
2017-Aug-21 08:26N 30°13' W 093°16'0 0.0
2017-Aug-21 07:56N 30°13' W 093°16'0 0.0
2017-Aug-21 07:26N 30°13' W 093°16'0 0.0
2017-Aug-21 06:59N 30°13' W 093°16'0 0.0
2017-Aug-21 06:26N 30°13' W 093°16'0 0.0
2017-Aug-21 05:59N 30°13' W 093°16'0 0.0
2017-Aug-21 05:26N 30°13' W 093°16'0 0.0
2017-Aug-21 04:56N 30°13' W 093°16'0 0.0
2017-Aug-21 04:26N 30°13' W 093°16'0 0.0
2017-Aug-21 03:56N 30°13' W 093°16'0 0.0
2017-Aug-21 03:26N 30°13' W 093°16'0 0.0
2017-Aug-21 02:56N 30°13' W 093°16'0 0.0
2017-Aug-21 02:26N 30°13' W 093°16'0 0.0
2017-Aug-21 01:59N 30°13' W 093°16'0 0.0
2017-Aug-21 01:29N 30°13' W 093°16'0 0.0
2017-Aug-21 00:59N 30°13' W 093°16'0 0.0
2017-Aug-21 00:29N 30°13' W 093°16'0 0.0
2017-Aug-20 23:59N 30°13' W 093°16'0 0.0
2017-Aug-20 23:29N 30°13' W 093°16'0 0.0
2017-Aug-20 22:56N 30°13' W 093°16'0 0.0
2017-Aug-20 22:29N 30°13' W 093°16'0 0.0
2017-Aug-20 21:56N 30°13' W 093°16'0 0.0
2017-Aug-20 21:29N 30°13' W 093°16'0 0.0
2017-Aug-20 20:56N 30°13' W 093°16'0 0.0
2017-Aug-20 20:26N 30°13' W 093°16'0 0.0
2017-Aug-20 19:56N 30°13' W 093°16'0 0.0
2017-Aug-20 19:26N 30°13' W 093°16'0 0.0
2017-Aug-20 18:59N 30°13' W 093°16'0 0.0
2017-Aug-20 18:29N 30°13' W 093°16'0 0.0
2017-Aug-20 17:50N 30°13' W 093°16'0 0.0
2017-Aug-20 17:29N 30°13' W 093°16'0 0.0
2017-Aug-20 16:59N 30°13' W 093°16'0 0.0
2017-Aug-20 16:29N 30°13' W 093°16'0 0.0
2017-Aug-20 15:59N 30°13' W 093°16'0 0.0
2017-Aug-20 15:29N 30°13' W 093°16'0 0.0
2017-Aug-20 14:59N 30°13' W 093°16'0 0.0
2017-Aug-20 14:29N 30°13' W 093°16'0 0.0
2017-Aug-20 13:59N 30°13' W 093°16'0 0.0
2017-Aug-20 13:29N 30°13' W 093°16'0 0.0
2017-Aug-20 12:59N 30°13' W 093°16'0 0.0
2017-Aug-20 12:23N 30°13' W 093°16'0 0.0
2017-Aug-20 11:56N 30°13' W 093°16'0 0.0
2017-Aug-20 11:29N 30°13' W 093°16'0 0.0
2017-Aug-20 10:59N 30°13' W 093°16'0 0.0
2017-Aug-20 10:29N 30°13' W 093°16'0 0.0
2017-Aug-20 09:59N 30°13' W 093°16'0 0.0
2017-Aug-20 09:26N 30°13' W 093°16'0 0.0
2017-Aug-20 08:56N 30°13' W 093°16'0 0.0
2017-Aug-20 07:44N 30°13' W 093°16'0 0.0
2017-Aug-20 06:32N 30°13' W 093°16'0 0.0
2017-Aug-20 06:14N 30°13' W 093°16'0 0.0
2017-Aug-20 05:56N 30°13' W 093°16'0 0.0
2017-Aug-20 05:26N 30°13' W 093°16'0 0.0
2017-Aug-20 02:44N 30°13' W 093°16'0 0.0
2017-Aug-20 02:14N 30°13' W 093°16'0 0.0
2017-Aug-20 01:56N 30°13' W 093°16'0 0.0
2017-Aug-20 01:29N 30°13' W 093°16'0 0.0
2017-Aug-20 00:56N 30°13' W 093°16'0 0.0
2017-Aug-20 00:20N 30°13' W 093°16'0 0.0
2017-Aug-19 23:56N 30°13' W 093°16'0 0.0
2017-Aug-19 23:26N 30°13' W 093°16'0 0.0
2017-Aug-19 22:56N 30°13' W 093°16'0 0.0
2017-Aug-19 22:26N 30°13' W 093°16'0 0.0
2017-Aug-19 21:56N 30°13' W 093°16'0 0.0
2017-Aug-19 21:14N 30°13' W 093°16'0 0.0
2017-Aug-19 20:20N 30°13' W 093°16'0 0.0
2017-Aug-19 19:50N 30°13' W 093°16'0 0.0
2017-Aug-19 19:20N 30°13' W 093°16'0 0.0
2017-Aug-19 18:56N 30°13' W 093°16'0 0.0
2017-Aug-19 18:26N 30°13' W 093°16'0 0.0
2017-Aug-19 17:56N 30°13' W 093°16'0 0.0
2017-Aug-19 17:14N 30°13' W 093°16'0 0.0
2017-Aug-19 16:56N 30°13' W 093°16'0 0.0
2017-Aug-19 16:26N 30°13' W 093°16'0 0.0
2017-Aug-19 14:56N 30°13' W 093°16'0 0.0
2017-Aug-19 13:02N 30°13' W 093°16'0 0.0
2017-Aug-19 12:56N 30°13' W 093°16'0 0.0
2017-Aug-19 12:26N 30°13' W 093°16'0 0.0
2017-Aug-19 11:50N 30°13' W 093°16'0 0.0
2017-Aug-19 11:26N 30°13' W 093°16'0 0.0
2017-Aug-19 10:56N 30°13' W 093°16'0 0.0
2017-Aug-19 08:20N 30°13' W 093°16'0 0.0
2017-Aug-19 01:20N 30°13' W 093°16'0 0.0
2017-Aug-19 00:56N 30°13' W 093°16'0 0.0
2017-Aug-19 00:20N 30°13' W 093°16'0 0.0
2017-Aug-18 21:50N 30°13' W 093°16'0 0.0
2017-Aug-18 21:26N 30°13' W 093°16'0 0.0
2017-Aug-18 20:59N 30°13' W 093°16'0 0.0
2017-Aug-18 20:29N 30°13' W 093°16'0 0.0
2017-Aug-18 19:56N 30°13' W 093°16'0 0.0
2017-Aug-18 19:26N 30°13' W 093°16'0 0.4
2017-Aug-18 18:59N 30°13' W 093°16'0 0.0
2017-Aug-18 18:29N 30°13' W 093°16'0 0.2
2017-Aug-18 17:59N 30°13' W 093°16'0 0.2
2017-Aug-18 17:29N 30°13' W 093°16'0 0.0
2017-Aug-18 16:59N 30°13' W 093°16'0 0.0
2017-Aug-18 16:29N 30°13' W 093°16'0 0.0
2017-Aug-18 15:59N 30°13' W 093°16'0 0.0
2017-Aug-18 15:29N 30°13' W 093°16'0 0.0
2017-Aug-18 14:59N 30°13' W 093°16'0 0.0
2017-Aug-18 14:29N 30°13' W 093°16'0 0.0
2017-Aug-18 13:26N 30°13' W 093°16'0 0.0
2017-Aug-18 12:50N 30°13' W 093°16'0 0.0
2017-Aug-18 12:26N 30°13' W 093°16'0 0.0
2017-Aug-18 11:56N 30°13' W 093°16'0 0.0
2017-Aug-18 11:23N 30°13' W 093°16'0 0.0
2017-Aug-18 10:56N 30°13' W 093°16'0 0.0
2017-Aug-18 10:26N 30°13' W 093°16'0 0.0
2017-Aug-18 09:56N 30°13' W 093°16'0 0.0
2017-Aug-18 09:26N 30°13' W 093°16'0 0.0
2017-Aug-18 08:56N 30°13' W 093°16'0 0.0
2017-Aug-18 08:26N 30°13' W 093°16'0 0.0
2017-Aug-18 07:44N 30°13' W 093°16'0 0.0
2017-Aug-18 07:26N 30°13' W 093°16'0 0.0
2017-Aug-18 06:56N 30°13' W 093°16'0 0.0
2017-Aug-18 06:26N 30°13' W 093°16'0 0.0
2017-Aug-18 05:56N 30°13' W 093°16'0 0.0
2017-Aug-18 05:26N 30°13' W 093°16'0 0.0
2017-Aug-18 04:56N 30°13' W 093°16'0 0.0
2017-Aug-18 04:26N 30°13' W 093°16'0 0.0
2017-Aug-18 03:56N 30°13' W 093°16'0 0.0
2017-Aug-18 03:26N 30°13' W 093°16'0 0.0
2017-Aug-18 02:50N 30°13' W 093°16'0 0.0
2017-Aug-18 02:26N 30°13' W 093°16'0 0.0
2017-Aug-18 01:56N 30°13' W 093°16'0 0.0
2017-Aug-18 01:26N 30°13' W 093°16'0 0.0
2017-Aug-18 00:56N 30°13' W 093°16'0 0.0
2017-Aug-18 00:26N 30°13' W 093°16'0 0.0
2017-Aug-17 23:56N 30°13' W 093°16'0 0.0
2017-Aug-17 23:26N 30°13' W 093°16'0 0.0
2017-Aug-17 22:56N 30°13' W 093°16'0 0.0
2017-Aug-17 22:26N 30°13' W 093°16'0 0.0
2017-Aug-17 21:56N 30°13' W 093°16'0 0.0
2017-Aug-17 21:26N 30°13' W 093°16'0 0.0
2017-Aug-17 20:56N 30°13' W 093°16'0 0.0
2017-Aug-17 20:26N 30°13' W 093°16'0 0.0
2017-Aug-17 19:56N 30°13' W 093°16'0 0.0
2017-Aug-17 17:56N 30°13' W 093°16'0 0.0
2017-Aug-17 17:26N 30°13' W 093°16'0 0.0
2017-Aug-17 16:59N 30°13' W 093°16'0 0.0
2017-Aug-17 16:26N 30°13' W 093°16'0 0.0
2017-Aug-17 15:50N 30°13' W 093°16'0 0.0
2017-Aug-17 15:26N 30°13' W 093°16'0 0.0
2017-Aug-17 14:56N 30°13' W 093°16'0 0.0
2017-Aug-17 14:26N 30°13' W 093°16'0 0.0
2017-Aug-17 13:56N 30°13' W 093°16'0 0.0
2017-Aug-17 13:26N 30°13' W 093°16'0 0.0
2017-Aug-17 12:56N 30°13' W 093°16'0 0.0
2017-Aug-17 12:20N 30°13' W 093°16'0 0.0
2017-Aug-17 11:56N 30°13' W 093°16'0 0.0
2017-Aug-17 11:26N 30°13' W 093°16'0 0.0
2017-Aug-17 10:56N 30°13' W 093°16'0 0.0
2017-Aug-17 10:29N 30°13' W 093°16'0 0.0
2017-Aug-17 09:50N 30°13' W 093°16'0 0.0
2017-Aug-17 09:29N 30°13' W 093°16'0 0.0
2017-Aug-17 08:56N 30°13' W 093°16'0 0.0
2017-Aug-17 08:20N 30°13' W 093°16'0 0.0
2017-Aug-17 07:50N 30°13' W 093°16'0 0.0
2017-Aug-17 07:29N 30°13' W 093°16'0 0.0
2017-Aug-17 06:56N 30°13' W 093°16'0 0.0
2017-Aug-17 06:26N 30°13' W 093°16'0 0.0
2017-Aug-17 05:56N 30°13' W 093°16'0 0.0
2017-Aug-17 05:26N 30°13' W 093°16'0 0.0
2017-Aug-17 04:56N 30°13' W 093°16'0 0.0
2017-Aug-17 04:26N 30°13' W 093°16'0 0.0
2017-Aug-17 03:53N 30°13' W 093°16'0 0.0
2017-Aug-17 03:26N 30°13' W 093°16'0 0.0
2017-Aug-17 02:56N 30°13' W 093°16'0 0.0
2017-Aug-17 02:26N 30°13' W 093°16'0 0.0
2017-Aug-17 01:59N 30°13' W 093°16'0 0.0
2017-Aug-17 01:20N 30°13' W 093°16'0 0.0
2017-Aug-17 00:56N 30°13' W 093°16'0 0.0
2017-Aug-17 00:26N 30°13' W 093°16'0 0.0
2017-Aug-16 23:59N 30°13' W 093°16'0 0.0
2017-Aug-16 23:26N 30°13' W 093°16'0 0.0
2017-Aug-16 22:53N 30°13' W 093°16'0 0.0
2017-Aug-16 22:26N 30°13' W 093°16'0 0.0
2017-Aug-16 21:59N 30°13' W 093°16'0 0.0
2017-Aug-16 21:29N 30°13' W 093°16'0 0.0
2017-Aug-16 20:59N 30°13' W 093°16'0 0.0
2017-Aug-16 20:26N 30°13' W 093°16'0 0.0
2017-Aug-16 19:56N 30°13' W 093°16'0 0.0
2017-Aug-16 19:26N 30°13' W 093°16'0 0.0
2017-Aug-16 18:56N 30°13' W 093°16'0 0.0
2017-Aug-16 18:26N 30°13' W 093°16'0 0.0
2017-Aug-16 17:59N 30°13' W 093°16'0 0.0
2017-Aug-16 17:26N 30°13' W 093°16'0 0.0
2017-Aug-16 16:59N 30°13' W 093°16'0 0.0
2017-Aug-16 16:29N 30°13' W 093°16'0 0.0
2017-Aug-16 15:56N 30°13' W 093°16'0 0.0
2017-Aug-16 15:26N 30°13' W 093°16'0 0.0
2017-Aug-16 14:56N 30°13' W 093°16'0 0.0
2017-Aug-16 14:29N 30°13' W 093°16'0 0.0
2017-Aug-16 13:56N 30°13' W 093°16'0 0.0
2017-Aug-16 13:26N 30°13' W 093°16'0 0.0
2017-Aug-16 12:59N 30°13' W 093°16'0 0.0
2017-Aug-16 12:29N 30°13' W 093°16'0 0.0
2017-Aug-16 11:56N 30°13' W 093°16'0 0.0
2017-Aug-16 11:26N 30°13' W 093°16'0 0.0
2017-Aug-16 10:50N 30°13' W 093°16'0 0.0
2017-Aug-16 10:20N 30°13' W 093°16'0 0.0
2017-Aug-16 09:56N 30°13' W 093°16'0 0.0
2017-Aug-16 09:26N 30°13' W 093°16'0 0.0
2017-Aug-16 08:56N 30°13' W 093°16'0 0.0
2017-Aug-16 08:26N 30°13' W 093°16'0 0.0
2017-Aug-16 07:56N 30°13' W 093°16'0 0.0
2017-Aug-16 07:20N 30°13' W 093°16'0 0.0
2017-Aug-16 06:56N 30°13' W 093°16'0 0.0
2017-Aug-16 06:20N 30°13' W 093°16'0 0.0
2017-Aug-16 05:56N 30°13' W 093°16'0 0.0
2017-Aug-16 05:20N 30°13' W 093°16'0 0.0
2017-Aug-16 04:50N 30°13' W 093°16'0 0.0
2017-Aug-16 04:26N 30°13' W 093°16'0 0.0
2017-Aug-16 03:50N 30°13' W 093°16'0 0.0
2017-Aug-16 03:14N 30°13' W 093°16'0 0.0
2017-Aug-16 02:56N 30°13' W 093°16'0 0.0
2017-Aug-16 02:26N 30°13' W 093°16'0 0.0
2017-Aug-16 01:56N 30°13' W 093°16'0 0.0
2017-Aug-16 01:20N 30°13' W 093°16'0 0.0
2017-Aug-16 00:56N 30°13' W 093°16'0 0.0
2017-Aug-16 00:26N 30°13' W 093°16'0 0.0
2017-Aug-15 23:56N 30°13' W 093°16'0 0.0
2017-Aug-15 23:26N 30°13' W 093°16'0 0.0
2017-Aug-15 22:56N 30°13' W 093°16'0 0.0
2017-Aug-15 22:26N 30°13' W 093°16'0 0.0
2017-Aug-15 21:56N 30°13' W 093°16'0 0.0
2017-Aug-15 21:29N 30°13' W 093°16'0 0.0
2017-Aug-15 20:56N 30°13' W 093°16'0 0.0
2017-Aug-15 20:26N 30°13' W 093°16'0 0.0
2017-Aug-15 19:59N 30°13' W 093°16'0 0.0
2017-Aug-15 19:29N 30°13' W 093°16'0 0.0
2017-Aug-15 18:59N 30°13' W 093°16'0 0.0
2017-Aug-15 18:29N 30°13' W 093°16'0 0.0
2017-Aug-15 17:59N 30°13' W 093°16'0 0.0
2017-Aug-15 17:29N 30°13' W 093°16'0 0.0
2017-Aug-15 16:59N 30°13' W 093°16'0 0.0
2017-Aug-15 16:26N 30°13' W 093°16'0 0.0
2017-Aug-15 15:59N 30°13' W 093°16'0 0.0
2017-Aug-15 15:29N 30°13' W 093°16'0 0.0
2017-Aug-15 14:59N 30°13' W 093°16'0 0.0
2017-Aug-15 14:23N 30°13' W 093°16'0 0.0
2017-Aug-15 13:59N 30°13' W 093°16'0 0.0
2017-Aug-15 13:26N 30°13' W 093°16'0 0.0
2017-Aug-15 13:00N 30°13' W 093°16'0 0.1
2017-Aug-15 12:31N 30°13' W 093°16'0 0.1
2017-Aug-15 12:00N 30°13' W 093°16'0 0.0
2017-Aug-15 11:30N 30°13' W 093°16'0 0.0
2017-Aug-15 11:00N 30°13' W 093°16'0 0.0
2017-Aug-15 10:24N 30°13' W 093°16'0 0.0
2017-Aug-15 10:00N 30°13' W 093°16'0 0.0
2017-Aug-15 09:30N 30°13' W 093°16'0 0.0
2017-Aug-15 09:00N 30°13' W 093°16'0 0.0
2017-Aug-15 08:30N 30°13' W 093°16'0 0.0
2017-Aug-15 08:00N 30°13' W 093°16'0 0.0
2017-Aug-15 07:24N 30°13' W 093°16'0 0.0
2017-Aug-15 07:00N 30°13' W 093°16'0 0.0
2017-Aug-15 06:30N 30°13' W 093°16'0 0.0
2017-Aug-15 06:00N 30°13' W 093°16'0 0.0
2017-Aug-15 05:30N 30°13' W 093°16'0 0.0
2017-Aug-15 05:00N 30°13' W 093°16'0 0.0
2017-Aug-15 04:27N 30°13' W 093°16'0 0.0
2017-Aug-15 04:00N 30°13' W 093°16'0 0.0
2017-Aug-15 03:30N 30°13' W 093°16'0 0.0
2017-Aug-15 02:57N 30°13' W 093°16'0 0.0
2017-Aug-15 02:24N 30°13' W 093°16'0 0.0
2017-Aug-15 02:00N 30°13' W 093°16'0 0.0
2017-Aug-15 01:30N 30°13' W 093°16'0 0.0
2017-Aug-15 01:00N 30°13' W 093°16'0 0.0
2017-Aug-15 00:30N 30°13' W 093°16'0 0.0
2017-Aug-14 23:57N 30°13' W 093°16'0 0.0
2017-Aug-14 23:27N 30°13' W 093°16'0 0.0
2017-Aug-14 23:00N 30°13' W 093°16'0 0.0
2017-Aug-14 22:30N 30°13' W 093°16'0 0.0
2017-Aug-14 22:00N 30°13' W 093°16'0 0.0
2017-Aug-14 21:30N 30°13' W 093°16'0 0.0
2017-Aug-14 21:00N 30°13' W 093°16'0 0.0
2017-Aug-14 20:30N 30°13' W 093°16'0 0.0
2017-Aug-14 19:51N 30°13' W 093°16'0 0.0
2017-Aug-14 19:27N 30°13' W 093°16'0 0.0
2017-Aug-14 19:00N 30°13' W 093°16'0 0.0
2017-Aug-14 18:30N 30°13' W 093°16'0 0.0
2017-Aug-14 17:57N 30°13' W 093°16'0 0.0
2017-Aug-14 17:30N 30°13' W 093°16'0 0.0
2017-Aug-14 17:00N 30°13' W 093°16'0 0.0
2017-Aug-14 16:30N 30°13' W 093°16'0 0.0
2017-Aug-14 16:00N 30°13' W 093°16'0 0.0
2017-Aug-14 15:30N 30°13' W 093°16'0 0.0
2017-Aug-14 15:00N 30°13' W 093°16'0 0.0
2017-Aug-14 14:30N 30°13' W 093°16'0 0.0
2017-Aug-14 14:00N 30°13' W 093°16'0 0.0
2017-Aug-14 13:30N 30°13' W 093°16'0 0.0
2017-Aug-14 13:00N 30°13' W 093°16'0 0.0
2017-Aug-14 12:30N 30°13' W 093°16'0 0.0
2017-Aug-14 12:00N 30°13' W 093°16'0 0.0
2017-Aug-14 11:27N 30°13' W 093°16'0 0.0
2017-Aug-14 11:00N 30°13' W 093°16'0 0.0
2017-Aug-14 10:30N 30°13' W 093°16'0 0.0
2017-Aug-14 10:00N 30°13' W 093°16'0 0.0
2017-Aug-14 09:27N 30°13' W 093°16'0 0.0
2017-Aug-14 09:00N 30°13' W 093°16'0 0.0
2017-Aug-14 08:30N 30°13' W 093°16'0 0.0
2017-Aug-14 08:00N 30°13' W 093°16'0 0.0
2017-Aug-14 07:30N 30°13' W 093°16'0 0.0
2017-Aug-14 06:57N 30°13' W 093°16'0 0.0
2017-Aug-14 06:30N 30°13' W 093°16'0 0.0
2017-Aug-14 06:00N 30°13' W 093°16'0 0.0
2017-Aug-14 05:30N 30°13' W 093°16'0 0.0
2017-Aug-14 04:57N 30°13' W 093°16'0 0.0
2017-Aug-14 04:30N 30°13' W 093°16'0 0.0
2017-Aug-14 04:00N 30°13' W 093°16'0 0.0
2017-Aug-14 03:30N 30°13' W 093°16'0 0.0
2017-Aug-14 03:00N 30°13' W 093°16'0 0.0
2017-Aug-14 02:30N 30°13' W 093°16'0 0.0
2017-Aug-14 01:54N 30°13' W 093°16'0 0.0
2017-Aug-14 01:30N 30°13' W 093°16'0 0.0
2017-Aug-14 01:00N 30°13' W 093°16'0 0.0
2017-Aug-14 00:30N 30°13' W 093°16'0 0.0
2017-Aug-14 00:00N 30°13' W 093°16'0 0.0
2017-Aug-13 23:30N 30°13' W 093°16'0 0.0
2017-Aug-13 23:00N 30°13' W 093°16'0 0.0
2017-Aug-13 22:30N 30°13' W 093°16'0 0.0
2017-Aug-13 22:00N 30°13' W 093°16'0 0.0
2017-Aug-13 21:27N 30°13' W 093°16'0 0.0
2017-Aug-13 20:57N 30°13' W 093°16'0 0.0
2017-Aug-13 20:30N 30°13' W 093°16'0 0.0
2017-Aug-13 19:54N 30°13' W 093°16'0 0.0
2017-Aug-13 19:30N 30°13' W 093°16'0 0.0
2017-Aug-13 19:00N 30°13' W 093°16'0 0.0
2017-Aug-13 18:30N 30°13' W 093°16'0 0.0
2017-Aug-13 18:00N 30°13' W 093°16'0 0.0
2017-Aug-13 17:27N 30°13' W 093°16'0 0.0
2017-Aug-13 16:54N 30°13' W 093°16'0 0.0
2017-Aug-13 16:27N 30°13' W 093°16'0 0.0
2017-Aug-13 15:57N 30°13' W 093°16'0 0.0
2017-Aug-13 15:30N 30°13' W 093°16'0 0.0
2017-Aug-13 15:00N 30°13' W 093°16'0 0.0
2017-Aug-13 14:30N 30°13' W 093°16'0 0.0
2017-Aug-13 14:00N 30°13' W 093°16'0 0.0
2017-Aug-13 13:30N 30°13' W 093°16'0 0.0
2017-Aug-13 12:57N 30°13' W 093°16'0 0.0
2017-Aug-13 12:27N 30°13' W 093°16'0 0.0
2017-Aug-13 11:57N 30°13' W 093°16'0 0.0
2017-Aug-13 11:30N 30°13' W 093°16'0 0.0
2017-Aug-13 10:57N 30°13' W 093°16'0 0.0
2017-Aug-13 10:30N 30°13' W 093°16'0 0.0
2017-Aug-13 10:00N 30°13' W 093°16'0 0.0
2017-Aug-13 09:30N 30°13' W 093°16'0 0.0
2017-Aug-13 08:57N 30°13' W 093°16'0 0.0
2017-Aug-13 08:30N 30°13' W 093°16'0 0.0
2017-Aug-13 08:00N 30°13' W 093°16'0 0.0
2017-Aug-13 07:30N 30°13' W 093°16'0 0.0
2017-Aug-13 07:00N 30°13' W 093°16'0 0.0
2017-Aug-13 06:30N 30°13' W 093°16'0 0.0
2017-Aug-13 05:54N 30°13' W 093°16'0 0.0
2017-Aug-13 05:30N 30°13' W 093°16'0 0.0
2017-Aug-13 05:00N 30°13' W 093°16'0 0.0
2017-Aug-13 04:30N 30°13' W 093°16'0 0.0
2017-Aug-13 04:00N 30°13' W 093°16'0 0.0
2017-Aug-13 03:30N 30°13' W 093°16'0 0.0
2017-Aug-13 02:57N 30°13' W 093°16'0 0.0
2017-Aug-13 02:30N 30°13' W 093°16'0 0.0
2017-Aug-13 02:00N 30°13' W 093°16'0 0.0
2017-Aug-13 01:30N 30°13' W 093°16'0 0.0
2017-Aug-13 01:00N 30°13' W 093°16'0 0.0
2017-Aug-13 00:24N 30°13' W 093°16'0 0.0
2017-Aug-13 00:00N 30°13' W 093°16'0 0.0
2017-Aug-12 23:30N 30°13' W 093°16'0 0.0
2017-Aug-12 23:00N 30°13' W 093°16'0 0.0
2017-Aug-12 22:30N 30°13' W 093°16'0 0.0
2017-Aug-12 22:00N 30°13' W 093°16'0 0.0
2017-Aug-12 21:27N 30°13' W 093°16'0 0.0
2017-Aug-12 21:00N 30°13' W 093°16'0 0.0
2017-Aug-12 20:30N 30°13' W 093°16'0 0.0
2017-Aug-12 20:00N 30°13' W 093°16'0 0.0
2017-Aug-12 19:21N 30°13' W 093°16'0 0.0
2017-Aug-12 18:57N 30°13' W 093°16'0 0.0
2017-Aug-12 18:30N 30°13' W 093°16'0 0.0
2017-Aug-12 18:00N 30°13' W 093°16'0 0.0
2017-Aug-12 17:27N 30°13' W 093°16'0 0.0
2017-Aug-12 17:00N 30°13' W 093°16'0 0.0
2017-Aug-12 16:30N 30°13' W 093°16'0 0.0
2017-Aug-12 16:00N 30°13' W 093°16'0 0.0
2017-Aug-12 15:30N 30°13' W 093°16'0 0.0
2017-Aug-12 14:57N 30°13' W 093°16'0 0.0
2017-Aug-12 14:30N 30°13' W 093°16'  
Track history (hours):
 
Tides and Currents Weather Stations Pressure Air Temp Water Temp Dewpoint Dewpoint Depression Visibility Wind Speed Wind Dir Waves Ship Positions

Ocean Wind

Owner: CROWLEY MARINE SERVIES, INC, SEATTLE, WA. More information available from US FCC via Universal Licensing System and Coast Guard Vessel Documentation Center.

Last reported at 2017-Aug-22 14:11 UTC. Time now 2017-Sep-22 02:46 UTC.
Position N 29°59' W 093°20'.
Warning: this ship's position is 30 days out of date.

Length 45 m; draft 5.7 m.

Type: Tug. MMSI: 338737000.

Date/timePositionNaut miles runAvg speedWind from/ knotsBaromVisibWave heightAir tempDewpointWater temp
2017-Aug-22 14:11N 29°59' W 093°20'1 6.9
2017-Aug-22 14:00N 29°60' W 093°20'4 7.4
2017-Aug-22 13:30N 30°04' W 093°20'4 7.4
2017-Aug-22 13:00N 30°07' W 093°20'4 7.7
2017-Aug-22 12:30N 30°11' W 093°19'3 6.4
2017-Aug-22 11:59N 30°13' W 093°16'0 0.0
2017-Aug-22 11:29N 30°13' W 093°16'0 0.0
2017-Aug-22 10:53N 30°13' W 093°16'0 0.0
2017-Aug-22 10:23N 30°13' W 093°16'0 0.0
2017-Aug-22 09:59N 30°13' W 093°16'0 0.0
2017-Aug-22 09:29N 30°13' W 093°16'0 0.0
2017-Aug-22 08:59N 30°13' W 093°16'0 0.0
2017-Aug-22 08:23N 30°13' W 093°16'0 0.0
2017-Aug-22 07:59N 30°13' W 093°16'0 0.0
2017-Aug-22 07:29N 30°13' W 093°16'0 0.0
2017-Aug-22 06:59N 30°13' W 093°16'0 0.0
2017-Aug-22 06:23N 30°13' W 093°16'0 0.0
2017-Aug-22 05:59N 30°13' W 093°16'0 0.0
2017-Aug-22 05:23N 30°13' W 093°16'0 0.0
2017-Aug-22 04:59N 30°13' W 093°16'0 0.0
2017-Aug-22 04:29N 30°13' W 093°16'0 0.0
2017-Aug-22 03:59N 30°13' W 093°16'0 0.0
2017-Aug-22 03:29N 30°13' W 093°16'0 0.0
2017-Aug-22 02:53N 30°13' W 093°16'0 0.0
2017-Aug-22 02:29N 30°13' W 093°16'0 0.0
2017-Aug-22 01:59N 30°13' W 093°16'0 0.0
2017-Aug-22 01:29N 30°13' W 093°16'0 0.0
2017-Aug-22 00:59N 30°13' W 093°16'0 0.0
2017-Aug-22 00:29N 30°13' W 093°16'0 0.0
2017-Aug-21 23:59N 30°13' W 093°16'0 0.0
2017-Aug-21 23:29N 30°13' W 093°16'0 0.0
2017-Aug-21 22:59N 30°13' W 093°16'0 0.0
2017-Aug-21 22:29N 30°13' W 093°16'0 0.0
2017-Aug-21 21:50N 30°13' W 093°16'0 0.0
2017-Aug-21 21:29N 30°13' W 093°16'0 0.0
2017-Aug-21 20:59N 30°13' W 093°16'0 0.0
2017-Aug-21 20:29N 30°13' W 093°16'0 0.1
2017-Aug-21 19:59N 30°13' W 093°16'0 0.3
2017-Aug-21 19:29N 30°13' W 093°16'0 0.1
2017-Aug-21 18:59N 30°13' W 093°16'0 0.4
2017-Aug-21 18:29N 30°13' W 093°16'0 0.0
2017-Aug-21 17:59N 30°13' W 093°16'0 0.0
2017-Aug-21 17:23N 30°13' W 093°16'0 0.0
2017-Aug-21 16:59N 30°13' W 093°16'0 0.0
2017-Aug-21 16:29N 30°13' W 093°16'0 0.0
2017-Aug-21 15:59N 30°13' W 093°16'0 0.0
2017-Aug-21 15:29N 30°13' W 093°16'0 0.0
2017-Aug-21 14:59N 30°13' W 093°16'0 0.0
2017-Aug-21 14:29N 30°13' W 093°16'0 0.0
2017-Aug-21 13:59N 30°13' W 093°16'0 0.0
2017-Aug-21 13:29N 30°13' W 093°16'0 0.0
2017-Aug-21 12:59N 30°13' W 093°16'0 0.0
2017-Aug-21 12:29N 30°13' W 093°16'0 0.0
2017-Aug-21 11:56N 30°13' W 093°16'0 0.0
2017-Aug-21 11:29N 30°13' W 093°16'0 0.0
2017-Aug-21 10:59N 30°13' W 093°16'0 0.0
2017-Aug-21 10:26N 30°13' W 093°16'0 0.0
2017-Aug-21 09:56N 30°13' W 093°16'0 0.0
2017-Aug-21 09:26N 30°13' W 093°16'0 0.0
2017-Aug-21 08:59N 30°13' W 093°16'0 0.0
2017-Aug-21 08:26N 30°13' W 093°16'0 0.0
2017-Aug-21 07:56N 30°13' W 093°16'0 0.0
2017-Aug-21 07:26N 30°13' W 093°16'0 0.0
2017-Aug-21 06:59N 30°13' W 093°16'0 0.0
2017-Aug-21 06:26N 30°13' W 093°16'0 0.0
2017-Aug-21 05:59N 30°13' W 093°16'0 0.0
2017-Aug-21 05:26N 30°13' W 093°16'0 0.0
2017-Aug-21 04:56N 30°13' W 093°16'0 0.0
2017-Aug-21 04:26N 30°13' W 093°16'0 0.0
2017-Aug-21 03:56N 30°13' W 093°16'0 0.0
2017-Aug-21 03:26N 30°13' W 093°16'0 0.0
2017-Aug-21 02:56N 30°13' W 093°16'0 0.0
2017-Aug-21 02:26N 30°13' W 093°16'0 0.0
2017-Aug-21 01:59N 30°13' W 093°16'0 0.0
2017-Aug-21 01:29N 30°13' W 093°16'0 0.0
2017-Aug-21 00:59N 30°13' W 093°16'0 0.0
2017-Aug-21 00:29N 30°13' W 093°16'0 0.0
2017-Aug-20 23:59N 30°13' W 093°16'0 0.0
2017-Aug-20 23:29N 30°13' W 093°16'0 0.0
2017-Aug-20 22:56N 30°13' W 093°16'0 0.0
2017-Aug-20 22:29N 30°13' W 093°16'0 0.0
2017-Aug-20 21:56N 30°13' W 093°16'0 0.0
2017-Aug-20 21:29N 30°13' W 093°16'0 0.0
2017-Aug-20 20:56N 30°13' W 093°16'0 0.0
2017-Aug-20 20:26N 30°13' W 093°16'0 0.0
2017-Aug-20 19:56N 30°13' W 093°16'0 0.0
2017-Aug-20 19:26N 30°13' W 093°16'0 0.0
2017-Aug-20 18:59N 30°13' W 093°16'0 0.0
2017-Aug-20 18:29N 30°13' W 093°16'0 0.0
2017-Aug-20 17:50N 30°13' W 093°16'0 0.0
2017-Aug-20 17:29N 30°13' W 093°16'0 0.0
2017-Aug-20 16:59N 30°13' W 093°16'0 0.0
2017-Aug-20 16:29N 30°13' W 093°16'0 0.0
2017-Aug-20 15:59N 30°13' W 093°16'0 0.0
2017-Aug-20 15:29N 30°13' W 093°16'0 0.0
2017-Aug-20 14:59N 30°13' W 093°16'0 0.0
2017-Aug-20 14:29N 30°13' W 093°16'0 0.0
2017-Aug-20 13:59N 30°13' W 093°16'0 0.0
2017-Aug-20 13:29N 30°13' W 093°16'0 0.0
2017-Aug-20 12:59N 30°13' W 093°16'0 0.0
2017-Aug-20 12:23N 30°13' W 093°16'0 0.0
2017-Aug-20 11:56N 30°13' W 093°16'0 0.0
2017-Aug-20 11:29N 30°13' W 093°16'0 0.0
2017-Aug-20 10:59N 30°13' W 093°16'0 0.0
2017-Aug-20 10:29N 30°13' W 093°16'0 0.0
2017-Aug-20 09:59N 30°13' W 093°16'0 0.0
2017-Aug-20 09:26N 30°13' W 093°16'0 0.0
2017-Aug-20 08:56N 30°13' W 093°16'0 0.0
2017-Aug-20 07:44N 30°13' W 093°16'0 0.0
2017-Aug-20 06:32N 30°13' W 093°16'0 0.0
2017-Aug-20 06:14N 30°13' W 093°16'0 0.0
2017-Aug-20 05:56N 30°13' W 093°16'0 0.0
2017-Aug-20 05:26N 30°13' W 093°16'0 0.0
2017-Aug-20 02:44N 30°13' W 093°16'0 0.0
2017-Aug-20 02:14N 30°13' W 093°16'0 0.0
2017-Aug-20 01:56N 30°13' W 093°16'0 0.0
2017-Aug-20 01:29N 30°13' W 093°16'0 0.0
2017-Aug-20 00:56N 30°13' W 093°16'0 0.0
2017-Aug-20 00:20N 30°13' W 093°16'0 0.0
2017-Aug-19 23:56N 30°13' W 093°16'0 0.0
2017-Aug-19 23:26N 30°13' W 093°16'0 0.0
2017-Aug-19 22:56N 30°13' W 093°16'0 0.0
2017-Aug-19 22:26N 30°13' W 093°16'0 0.0
2017-Aug-19 21:56N 30°13' W 093°16'0 0.0
2017-Aug-19 21:14N 30°13' W 093°16'0 0.0
2017-Aug-19 20:20N 30°13' W 093°16'0 0.0
2017-Aug-19 19:50N 30°13' W 093°16'0 0.0
2017-Aug-19 19:20N 30°13' W 093°16'0 0.0
2017-Aug-19 18:56N 30°13' W 093°16'0 0.0
2017-Aug-19 18:26N 30°13' W 093°16'0 0.0
2017-Aug-19 17:56N 30°13' W 093°16'0 0.0
2017-Aug-19 17:14N 30°13' W 093°16'0 0.0
2017-Aug-19 16:56N 30°13' W 093°16'0 0.0
2017-Aug-19 16:26N 30°13' W 093°16'0 0.0
2017-Aug-19 14:56N 30°13' W 093°16'0 0.0
2017-Aug-19 13:02N 30°13' W 093°16'0 0.0
2017-Aug-19 12:56N 30°13' W 093°16'0 0.0
2017-Aug-19 12:26N 30°13' W 093°16'0 0.0
2017-Aug-19 11:50N 30°13' W 093°16'0 0.0
2017-Aug-19 11:26N 30°13' W 093°16'0 0.0
2017-Aug-19 10:56N 30°13' W 093°16'0 0.0
2017-Aug-19 08:20N 30°13' W 093°16'0 0.0
2017-Aug-19 01:20N 30°13' W 093°16'0 0.0
2017-Aug-19 00:56N 30°13' W 093°16'0 0.0
2017-Aug-19 00:20N 30°13' W 093°16'0 0.0
2017-Aug-18 21:50N 30°13' W 093°16'0 0.0
2017-Aug-18 21:26N 30°13' W 093°16'0 0.0
2017-Aug-18 20:59N 30°13' W 093°16'0 0.0
2017-Aug-18 20:29N 30°13' W 093°16'0 0.0
2017-Aug-18 19:56N 30°13' W 093°16'0 0.0
2017-Aug-18 19:26N 30°13' W 093°16'0 0.4
2017-Aug-18 18:59N 30°13' W 093°16'0 0.0
2017-Aug-18 18:29N 30°13' W 093°16'0 0.2
2017-Aug-18 17:59N 30°13' W 093°16'0 0.2
2017-Aug-18 17:29N 30°13' W 093°16'0 0.0
2017-Aug-18 16:59N 30°13' W 093°16'0 0.0
2017-Aug-18 16:29N 30°13' W 093°16'0 0.0
2017-Aug-18 15:59N 30°13' W 093°16'0 0.0
2017-Aug-18 15:29N 30°13' W 093°16'0 0.0
2017-Aug-18 14:59N 30°13' W 093°16'0 0.0
2017-Aug-18 14:29N 30°13' W 093°16'0 0.0
2017-Aug-18 13:26N 30°13' W 093°16'0 0.0
2017-Aug-18 12:50N 30°13' W 093°16'0 0.0
2017-Aug-18 12:26N 30°13' W 093°16'0 0.0
2017-Aug-18 11:56N 30°13' W 093°16'0 0.0
2017-Aug-18 11:23N 30°13' W 093°16'0 0.0
2017-Aug-18 10:56N 30°13' W 093°16'0 0.0
2017-Aug-18 10:26N 30°13' W 093°16'0 0.0
2017-Aug-18 09:56N 30°13' W 093°16'0 0.0
2017-Aug-18 09:26N 30°13' W 093°16'0 0.0
2017-Aug-18 08:56N 30°13' W 093°16'0 0.0
2017-Aug-18 08:26N 30°13' W 093°16'0 0.0
2017-Aug-18 07:44N 30°13' W 093°16'0 0.0
2017-Aug-18 07:26N 30°13' W 093°16'0 0.0
2017-Aug-18 06:56N 30°13' W 093°16'0 0.0
2017-Aug-18 06:26N 30°13' W 093°16'0 0.0
2017-Aug-18 05:56N 30°13' W 093°16'0 0.0
2017-Aug-18 05:26N 30°13' W 093°16'0 0.0
2017-Aug-18 04:56N 30°13' W 093°16'0 0.0
2017-Aug-18 04:26N 30°13' W 093°16'0 0.0
2017-Aug-18 03:56N 30°13' W 093°16'0 0.0
2017-Aug-18 03:26N 30°13' W 093°16'0 0.0
2017-Aug-18 02:50N 30°13' W 093°16'0 0.0
2017-Aug-18 02:26N 30°13' W 093°16'0 0.0
2017-Aug-18 01:56N 30°13' W 093°16'0 0.0
2017-Aug-18 01:26N 30°13' W 093°16'0 0.0
2017-Aug-18 00:56N 30°13' W 093°16'0 0.0
2017-Aug-18 00:26N 30°13' W 093°16'0 0.0
2017-Aug-17 23:56N 30°13' W 093°16'0 0.0
2017-Aug-17 23:26N 30°13' W 093°16'0 0.0
2017-Aug-17 22:56N 30°13' W 093°16'0 0.0
2017-Aug-17 22:26N 30°13' W 093°16'0 0.0
2017-Aug-17 21:56N 30°13' W 093°16'0 0.0
2017-Aug-17 21:26N 30°13' W 093°16'0 0.0
2017-Aug-17 20:56N 30°13' W 093°16'0 0.0
2017-Aug-17 20:26N 30°13' W 093°16'0 0.0
2017-Aug-17 19:56N 30°13' W 093°16'0 0.0
2017-Aug-17 17:56N 30°13' W 093°16'0 0.0
2017-Aug-17 17:26N 30°13' W 093°16'0 0.0
2017-Aug-17 16:59N 30°13' W 093°16'0 0.0
2017-Aug-17 16:26N 30°13' W 093°16'0 0.0
2017-Aug-17 15:50N 30°13' W 093°16'0 0.0
2017-Aug-17 15:26N 30°13' W 093°16'0 0.0
2017-Aug-17 14:56N 30°13' W 093°16'0 0.0
2017-Aug-17 14:26N 30°13' W 093°16'0 0.0
2017-Aug-17 13:56N 30°13' W 093°16'0 0.0
2017-Aug-17 13:26N 30°13' W 093°16'0 0.0
2017-Aug-17 12:56N 30°13' W 093°16'0 0.0
2017-Aug-17 12:20N 30°13' W 093°16'0 0.0
2017-Aug-17 11:56N 30°13' W 093°16'0 0.0
2017-Aug-17 11:26N 30°13' W 093°16'0 0.0
2017-Aug-17 10:56N 30°13' W 093°16'0 0.0
2017-Aug-17 10:29N 30°13' W 093°16'0 0.0
2017-Aug-17 09:50N 30°13' W 093°16'0 0.0
2017-Aug-17 09:29N 30°13' W 093°16'0 0.0
2017-Aug-17 08:56N 30°13' W 093°16'0 0.0
2017-Aug-17 08:20N 30°13' W 093°16'0 0.0
2017-Aug-17 07:50N 30°13' W 093°16'0 0.0
2017-Aug-17 07:29N 30°13' W 093°16'0 0.0
2017-Aug-17 06:56N 30°13' W 093°16'0 0.0
2017-Aug-17 06:26N 30°13' W 093°16'0 0.0
2017-Aug-17 05:56N 30°13' W 093°16'0 0.0
2017-Aug-17 05:26N 30°13' W 093°16'0 0.0
2017-Aug-17 04:56N 30°13' W 093°16'0 0.0
2017-Aug-17 04:26N 30°13' W 093°16'0 0.0
2017-Aug-17 03:53N 30°13' W 093°16'0 0.0
2017-Aug-17 03:26N 30°13' W 093°16'0 0.0
2017-Aug-17 02:56N 30°13' W 093°16'0 0.0
2017-Aug-17 02:26N 30°13' W 093°16'0 0.0
2017-Aug-17 01:59N 30°13' W 093°16'0 0.0
2017-Aug-17 01:20N 30°13' W 093°16'0 0.0
2017-Aug-17 00:56N 30°13' W 093°16'0 0.0
2017-Aug-17 00:26N 30°13' W 093°16'0 0.0
2017-Aug-16 23:59N 30°13' W 093°16'0 0.0
2017-Aug-16 23:26N 30°13' W 093°16'0 0.0
2017-Aug-16 22:53N 30°13' W 093°16'0 0.0
2017-Aug-16 22:26N 30°13' W 093°16'0 0.0
2017-Aug-16 21:59N 30°13' W 093°16'0 0.0
2017-Aug-16 21:29N 30°13' W 093°16'0 0.0
2017-Aug-16 20:59N 30°13' W 093°16'0 0.0
2017-Aug-16 20:26N 30°13' W 093°16'0 0.0
2017-Aug-16 19:56N 30°13' W 093°16'0 0.0
2017-Aug-16 19:26N 30°13' W 093°16'0 0.0
2017-Aug-16 18:56N 30°13' W 093°16'0 0.0
2017-Aug-16 18:26N 30°13' W 093°16'0 0.0
2017-Aug-16 17:59N 30°13' W 093°16'0 0.0
2017-Aug-16 17:26N 30°13' W 093°16'0 0.0
2017-Aug-16 16:59N 30°13' W 093°16'0 0.0
2017-Aug-16 16:29N 30°13' W 093°16'0 0.0
2017-Aug-16 15:56N 30°13' W 093°16'0 0.0
2017-Aug-16 15:26N 30°13' W 093°16'0 0.0
2017-Aug-16 14:56N 30°13' W 093°16'0 0.0
2017-Aug-16 14:29N 30°13' W 093°16'0 0.0
2017-Aug-16 13:56N 30°13' W 093°16'0 0.0
2017-Aug-16 13:26N 30°13' W 093°16'0 0.0
2017-Aug-16 12:59N 30°13' W 093°16'0 0.0
2017-Aug-16 12:29N 30°13' W 093°16'0 0.0
2017-Aug-16 11:56N 30°13' W 093°16'0 0.0
2017-Aug-16 11:26N 30°13' W 093°16'0 0.0
2017-Aug-16 10:50N 30°13' W 093°16'0 0.0
2017-Aug-16 10:20N 30°13' W 093°16'0 0.0
2017-Aug-16 09:56N 30°13' W 093°16'0 0.0
2017-Aug-16 09:26N 30°13' W 093°16'0 0.0
2017-Aug-16 08:56N 30°13' W 093°16'0 0.0
2017-Aug-16 08:26N 30°13' W 093°16'0 0.0
2017-Aug-16 07:56N 30°13' W 093°16'0 0.0
2017-Aug-16 07:20N 30°13' W 093°16'0 0.0
2017-Aug-16 06:56N 30°13' W 093°16'0 0.0
2017-Aug-16 06:20N 30°13' W 093°16'0 0.0
2017-Aug-16 05:56N 30°13' W 093°16'0 0.0
2017-Aug-16 05:20N 30°13' W 093°16'0 0.0
2017-Aug-16 04:50N 30°13' W 093°16'0 0.0
2017-Aug-16 04:26N 30°13' W 093°16'0 0.0
2017-Aug-16 03:50N 30°13' W 093°16'0 0.0
2017-Aug-16 03:14N 30°13' W 093°16'0 0.0
2017-Aug-16 02:56N 30°13' W 093°16'0 0.0
2017-Aug-16 02:26N 30°13' W 093°16'0 0.0
2017-Aug-16 01:56N 30°13' W 093°16'0 0.0
2017-Aug-16 01:20N 30°13' W 093°16'0 0.0
2017-Aug-16 00:56N 30°13' W 093°16'0 0.0
2017-Aug-16 00:26N 30°13' W 093°16'0 0.0
2017-Aug-15 23:56N 30°13' W 093°16'0 0.0
2017-Aug-15 23:26N 30°13' W 093°16'0 0.0
2017-Aug-15 22:56N 30°13' W 093°16'0 0.0
2017-Aug-15 22:26N 30°13' W 093°16'0 0.0
2017-Aug-15 21:56N 30°13' W 093°16'0 0.0
2017-Aug-15 21:29N 30°13' W 093°16'0 0.0
2017-Aug-15 20:56N 30°13' W 093°16'0 0.0
2017-Aug-15 20:26N 30°13' W 093°16'0 0.0
2017-Aug-15 19:59N 30°13' W 093°16'0 0.0
2017-Aug-15 19:29N 30°13' W 093°16'0 0.0
2017-Aug-15 18:59N 30°13' W 093°16'0 0.0
2017-Aug-15 18:29N 30°13' W 093°16'0 0.0
2017-Aug-15 17:59N 30°13' W 093°16'0 0.0
2017-Aug-15 17:29N 30°13' W 093°16'0 0.0
2017-Aug-15 16:59N 30°13' W 093°16'0 0.0
2017-Aug-15 16:26N 30°13' W 093°16'0 0.0
2017-Aug-15 15:59N 30°13' W 093°16'0 0.0
2017-Aug-15 15:29N 30°13' W 093°16'0 0.0
2017-Aug-15 14:59N 30°13' W 093°16'0 0.0
2017-Aug-15 14:23N 30°13' W 093°16'0 0.0
2017-Aug-15 13:59N 30°13' W 093°16'0 0.0
2017-Aug-15 13:26N 30°13' W 093°16'0 0.0
2017-Aug-15 13:00N 30°13' W 093°16'0 0.1
2017-Aug-15 12:31N 30°13' W 093°16'0 0.1
2017-Aug-15 12:00N 30°13' W 093°16'0 0.0
2017-Aug-15 11:30N 30°13' W 093°16'0 0.0
2017-Aug-15 11:00N 30°13' W 093°16'0 0.0
2017-Aug-15 10:24N 30°13' W 093°16'0 0.0
2017-Aug-15 10:00N 30°13' W 093°16'0 0.0
2017-Aug-15 09:30N 30°13' W 093°16'0 0.0
2017-Aug-15 09:00N 30°13' W 093°16'0 0.0
2017-Aug-15 08:30N 30°13' W 093°16'0 0.0
2017-Aug-15 08:00N 30°13' W 093°16'0 0.0
2017-Aug-15 07:24N 30°13' W 093°16'0 0.0
2017-Aug-15 07:00N 30°13' W 093°16'0 0.0
2017-Aug-15 06:30N 30°13' W 093°16'0 0.0
2017-Aug-15 06:00N 30°13' W 093°16'0 0.0
2017-Aug-15 05:30N 30°13' W 093°16'0 0.0
2017-Aug-15 05:00N 30°13' W 093°16'0 0.0
2017-Aug-15 04:27N 30°13' W 093°16'0 0.0
2017-Aug-15 04:00N 30°13' W 093°16'0 0.0
2017-Aug-15 03:30N 30°13' W 093°16'0 0.0
2017-Aug-15 02:57N 30°13' W 093°16'0 0.0
2017-Aug-15 02:24N 30°13' W 093°16'0 0.0
2017-Aug-15 02:00N 30°13' W 093°16'0 0.0
2017-Aug-15 01:30N 30°13' W 093°16'0 0.0
2017-Aug-15 01:00N 30°13' W 093°16'0 0.0
2017-Aug-15 00:30N 30°13' W 093°16'0 0.0
2017-Aug-14 23:57N 30°13' W 093°16'0 0.0
2017-Aug-14 23:27N 30°13' W 093°16'0 0.0
2017-Aug-14 23:00N 30°13' W 093°16'0 0.0
2017-Aug-14 22:30N 30°13' W 093°16'0 0.0
2017-Aug-14 22:00N 30°13' W 093°16'0 0.0
2017-Aug-14 21:30N 30°13' W 093°16'0 0.0
2017-Aug-14 21:00N 30°13' W 093°16'0 0.0
2017-Aug-14 20:30N 30°13' W 093°16'0 0.0
2017-Aug-14 19:51N 30°13' W 093°16'0 0.0
2017-Aug-14 19:27N 30°13' W 093°16'0 0.0
2017-Aug-14 19:00N 30°13' W 093°16'0 0.0
2017-Aug-14 18:30N 30°13' W 093°16'0 0.0
2017-Aug-14 17:57N 30°13' W 093°16'0 0.0
2017-Aug-14 17:30N 30°13' W 093°16'0 0.0
2017-Aug-14 17:00N 30°13' W 093°16'0 0.0
2017-Aug-14 16:30N 30°13' W 093°16'0 0.0
2017-Aug-14 16:00N 30°13' W 093°16'0 0.0
2017-Aug-14 15:30N 30°13' W 093°16'0 0.0
2017-Aug-14 15:00N 30°13' W 093°16'0 0.0
2017-Aug-14 14:30N 30°13' W 093°16'0 0.0
2017-Aug-14 14:00N 30°13' W 093°16'0 0.0
2017-Aug-14 13:30N 30°13' W 093°16'0 0.0
2017-Aug-14 13:00N 30°13' W 093°16'0 0.0
2017-Aug-14 12:30N 30°13' W 093°16'0 0.0
2017-Aug-14 12:00N 30°13' W 093°16'0 0.0
2017-Aug-14 11:27N 30°13' W 093°16'0 0.0
2017-Aug-14 11:00N 30°13' W 093°16'0 0.0
2017-Aug-14 10:30N 30°13' W 093°16'0 0.0
2017-Aug-14 10:00N 30°13' W 093°16'0 0.0
2017-Aug-14 09:27N 30°13' W 093°16'0 0.0
2017-Aug-14 09:00N 30°13' W 093°16'0 0.0
2017-Aug-14 08:30N 30°13' W 093°16'0 0.0
2017-Aug-14 08:00N 30°13' W 093°16'0 0.0
2017-Aug-14 07:30N 30°13' W 093°16'0 0.0
2017-Aug-14 06:57N 30°13' W 093°16'0 0.0
2017-Aug-14 06:30N 30°13' W 093°16'0 0.0
2017-Aug-14 06:00N 30°13' W 093°16'0 0.0
2017-Aug-14 05:30N 30°13' W 093°16'0 0.0
2017-Aug-14 04:57N 30°13' W 093°16'0 0.0
2017-Aug-14 04:30N 30°13' W 093°16'0 0.0
2017-Aug-14 04:00N 30°13' W 093°16'0 0.0
2017-Aug-14 03:30N 30°13' W 093°16'0 0.0
2017-Aug-14 03:00N 30°13' W 093°16'0 0.0
2017-Aug-14 02:30N 30°13' W 093°16'0 0.0
2017-Aug-14 01:54N 30°13' W 093°16'0 0.0
2017-Aug-14 01:30N 30°13' W 093°16'0 0.0
2017-Aug-14 01:00N 30°13' W 093°16'0 0.0
2017-Aug-14 00:30N 30°13' W 093°16'0 0.0
2017-Aug-14 00:00N 30°13' W 093°16'0 0.0
2017-Aug-13 23:30N 30°13' W 093°16'0 0.0
2017-Aug-13 23:00N 30°13' W 093°16'0 0.0
2017-Aug-13 22:30N 30°13' W 093°16'0 0.0
2017-Aug-13 22:00N 30°13' W 093°16'0 0.0
2017-Aug-13 21:27N 30°13' W 093°16'0 0.0
2017-Aug-13 20:57N 30°13' W 093°16'0 0.0
2017-Aug-13 20:30N 30°13' W 093°16'0 0.0
2017-Aug-13 19:54N 30°13' W 093°16'0 0.0
2017-Aug-13 19:30N 30°13' W 093°16'0 0.0
2017-Aug-13 19:00N 30°13' W 093°16'0 0.0
2017-Aug-13 18:30N 30°13' W 093°16'0 0.0
2017-Aug-13 18:00N 30°13' W 093°16'0 0.0
2017-Aug-13 17:27N 30°13' W 093°16'0 0.0
2017-Aug-13 16:54N 30°13' W 093°16'0 0.0
2017-Aug-13 16:27N 30°13' W 093°16'0 0.0
2017-Aug-13 15:57N 30°13' W 093°16'0 0.0
2017-Aug-13 15:30N 30°13' W 093°16'0 0.0
2017-Aug-13 15:00N 30°13' W 093°16'0 0.0
2017-Aug-13 14:30N 30°13' W 093°16'0 0.0
2017-Aug-13 14:00N 30°13' W 093°16'0 0.0
2017-Aug-13 13:30N 30°13' W 093°16'0 0.0
2017-Aug-13 12:57N 30°13' W 093°16'0 0.0
2017-Aug-13 12:27N 30°13' W 093°16'0 0.0
2017-Aug-13 11:57N 30°13' W 093°16'0 0.0
2017-Aug-13 11:30N 30°13' W 093°16'0 0.0
2017-Aug-13 10:57N 30°13' W 093°16'0 0.0
2017-Aug-13 10:30N 30°13' W 093°16'0 0.0
2017-Aug-13 10:00N 30°13' W 093°16'0 0.0
2017-Aug-13 09:30N 30°13' W 093°16'0 0.0
2017-Aug-13 08:57N 30°13' W 093°16'0 0.0
2017-Aug-13 08:30N 30°13' W 093°16'0 0.0
2017-Aug-13 08:00N 30°13' W 093°16'0 0.0
2017-Aug-13 07:30N 30°13' W 093°16'0 0.0
2017-Aug-13 07:00N 30°13' W 093°16'0 0.0
2017-Aug-13 06:30N 30°13' W 093°16'0 0.0
2017-Aug-13 05:54N 30°13' W 093°16'0 0.0
2017-Aug-13 05:30N 30°13' W 093°16'0 0.0
2017-Aug-13 05:00N 30°13' W 093°16'0 0.0
2017-Aug-13 04:30N 30°13' W 093°16'0 0.0
2017-Aug-13 04:00N 30°13' W 093°16'0 0.0
2017-Aug-13 03:30N 30°13' W 093°16'0 0.0
2017-Aug-13 02:57N 30°13' W 093°16'0 0.0
2017-Aug-13 02:30N 30°13' W 093°16'0 0.0
2017-Aug-13 02:00N 30°13' W 093°16'0 0.0
2017-Aug-13 01:30N 30°13' W 093°16'0 0.0
2017-Aug-13 01:00N 30°13' W 093°16'0 0.0
2017-Aug-13 00:24N 30°13' W 093°16'0 0.0
2017-Aug-13 00:00N 30°13' W 093°16'0 0.0
2017-Aug-12 23:30N 30°13' W 093°16'0 0.0
2017-Aug-12 23:00N 30°13' W 093°16'0 0.0
2017-Aug-12 22:30N 30°13' W 093°16'0 0.0
2017-Aug-12 22:00N 30°13' W 093°16'0 0.0
2017-Aug-12 21:27N 30°13' W 093°16'0 0.0
2017-Aug-12 21:00N 30°13' W 093°16'0 0.0
2017-Aug-12 20:30N 30°13' W 093°16'0 0.0
2017-Aug-12 20:00N 30°13' W 093°16'0 0.0
2017-Aug-12 19:21N 30°13' W 093°16'0 0.0
2017-Aug-12 18:57N 30°13' W 093°16'0 0.0
2017-Aug-12 18:30N 30°13' W 093°16'0 0.0
2017-Aug-12 18:00N 30°13' W 093°16'0 0.0
2017-Aug-12 17:27N 30°13' W 093°16'0 0.0
2017-Aug-12 17:00N 30°13' W 093°16'0 0.0
2017-Aug-12 16:30N 30°13' W 093°16'0 0.0
2017-Aug-12 16:00N 30°13' W 093°16'0 0.0
2017-Aug-12 15:30N 30°13' W 093°16'0 0.0
2017-Aug-12 14:57N 30°13' W 093°16'0 0.0
2017-Aug-12 14:30N 30°13' W 093°16'  

Dump ship's entire track history